createdAt,value
2022-11-15T00:02:40.023Z,99744.13
2022-11-15T00:05:27.460Z,99817.09
2022-11-15T00:08:14.389Z,99819.34
2022-11-15T00:11:04.550Z,99817.56
2022-11-15T00:13:51.578Z,99814.91
2022-11-15T00:16:38.138Z,99814.78
2022-11-15T00:19:24.799Z,99809.63
2022-11-15T00:22:11.897Z,99787.38
2022-11-15T00:24:58.161Z,99799.47
2022-11-15T00:27:46.489Z,99805.50
2022-11-15T00:30:33.208Z,99766.59
2022-11-15T00:33:19.957Z,99792.03
2022-11-15T00:36:10.361Z,99800.22
2022-11-15T00:38:57.326Z,99794.72
2022-11-15T00:41:44.098Z,99758.47
2022-11-15T00:44:31.032Z,99747.69
2022-11-15T00:47:17.402Z,99770.81
2022-11-15T00:50:05.521Z,99773.84
2022-11-15T00:52:52.188Z,99787.88
2022-11-15T00:55:38.987Z,99788.69
2022-11-15T00:58:25.280Z,99771.53
2022-11-15T01:01:15.938Z,99781.97
2022-11-15T01:04:02.602Z,99785.66
2022-11-15T01:06:49.765Z,99765.19
2022-11-15T01:09:36.321Z,99768.88
2022-11-15T01:12:23.352Z,99769.66
2022-11-15T01:15:09.967Z,99773.53
2022-11-15T01:17:57.263Z,99768.16
2022-11-15T01:20:44.390Z,99763.28
2022-11-15T01:23:31.379Z,99761.22
2022-11-15T01:26:18.068Z,99709.34
2022-11-15T01:29:05.495Z,99709.56
2022-11-15T01:31:53.577Z,99737.38
2022-11-15T01:34:40.196Z,99750.97
2022-11-15T01:37:26.991Z,99751.28
2022-11-15T01:40:14.232Z,99711.09
2022-11-15T01:43:19.736Z,99714.09
2022-11-15T01:46:35.018Z,99738.22
2022-11-15T01:49:24.876Z,99736.09
2022-11-15T01:52:19.151Z,99728.28
2022-11-15T01:55:22.748Z,99718.53
2022-11-15T01:58:09.793Z,99669.34
2022-11-15T02:00:57.338Z,99669.47
2022-11-15T02:04:29.152Z,99727.97
2022-11-15T02:07:21.149Z,99728.19
2022-11-15T02:10:20.226Z,99674.75
2022-11-15T02:13:06.947Z,99691.31
2022-11-15T02:16:05.927Z,99701.50
2022-11-15T02:19:50.985Z,99726.41
2022-11-15T02:23:12.757Z,99709.84
2022-11-15T02:26:27.422Z,99680.75
2022-11-15T02:29:57.264Z,99705.94
2022-11-15T02:33:15.477Z,99710.59
2022-11-15T02:36:10.151Z,99696.88
2022-11-15T02:39:16.756Z,99699.84
2022-11-15T02:42:46.119Z,99693.09
2022-11-15T02:45:40.543Z,99679.63
2022-11-15T02:48:27.584Z,99697.34
2022-11-15T02:51:15.855Z,99638.75
2022-11-15T02:54:02.597Z,99693.84
2022-11-15T02:56:50.724Z,99691.94
2022-11-15T03:00:09.654Z,99681.91
2022-11-15T03:03:50.088Z,99629.13
2022-11-15T03:06:57.455Z,99669.25
2022-11-15T03:10:07.822Z,99666.31
2022-11-15T03:13:06.024Z,99681.91
2022-11-15T03:16:08.383Z,99667.56
2022-11-15T03:19:27.235Z,99663.78
2022-11-15T03:22:19.045Z,99649.88
2022-11-15T03:25:12.375Z,99638.19
2022-11-15T03:28:03.760Z,99622.78
2022-11-15T03:30:53.222Z,99654.81
2022-11-15T03:33:41.184Z,99653.66
2022-11-15T03:36:30.976Z,99653.66
2022-11-15T03:39:20.582Z,99650.22
2022-11-15T03:42:50.141Z,99647.56
2022-11-15T03:45:52.042Z,99652.28
2022-11-15T03:48:51.064Z,99652.28
2022-11-15T03:51:37.776Z,99600.47
2022-11-15T03:54:24.907Z,99640.81
2022-11-15T03:57:11.357Z,99627.63
2022-11-15T03:59:58.356Z,99643.13
2022-11-15T04:02:44.895Z,99626.47
2022-11-15T04:05:31.972Z,99588.94
2022-11-15T04:08:18.815Z,99604.00
2022-11-15T04:11:05.628Z,99580.19
2022-11-15T04:13:52.212Z,99617.13
2022-11-15T04:16:43.672Z,99572.38
2022-11-15T04:19:49.048Z,99616.44
2022-11-15T04:22:54.669Z,99562.50
2022-11-15T04:25:43.990Z,99547.25
2022-11-15T04:28:31.353Z,99485.56
2022-11-15T04:31:17.974Z,99595.78
2022-11-15T04:34:04.460Z,99584.94
2022-11-15T04:37:09.501Z,99555.84
2022-11-15T04:39:57.585Z,99590.59
2022-11-15T04:42:44.137Z,99585.09
2022-11-15T04:45:30.923Z,99594.19
2022-11-15T04:48:17.734Z,99591.66
2022-11-15T04:51:04.483Z,99543.75
2022-11-15T04:53:50.971Z,99575.25
2022-11-15T04:56:37.962Z,99587.16
2022-11-15T04:59:24.572Z,99582.72
2022-11-15T05:02:11.088Z,99573.13
2022-11-15T05:04:59.037Z,99583.56
2022-11-15T05:07:45.776Z,99574.81
2022-11-15T05:10:32.513Z,99570.84
2022-11-15T05:13:19.545Z,99567.13
2022-11-15T05:16:06.286Z,99531.97
2022-11-15T05:18:55.362Z,99565.13
2022-11-15T05:21:42.059Z,99561.56
2022-11-15T05:24:28.673Z,99553.25
2022-11-15T05:27:15.106Z,99560.72
2022-11-15T05:30:01.944Z,99507.22
2022-11-15T05:32:49.615Z,99485.22
2022-11-15T05:35:42.887Z,99571.69
2022-11-15T05:38:30.151Z,99562.41
2022-11-15T05:41:20.531Z,99565.56
2022-11-15T05:44:11.326Z,99552.00
2022-11-15T05:46:59.086Z,99550.81
2022-11-15T05:49:49.020Z,99551.88
2022-11-15T05:52:37.936Z,99490.16
2022-11-15T05:55:24.781Z,99545.34
2022-11-15T05:58:11.341Z,99546.28
2022-11-15T06:00:58.113Z,99545.66
2022-11-15T06:03:44.711Z,99534.69
2022-11-15T06:06:31.898Z,99532.47
2022-11-15T06:09:18.757Z,99531.72
2022-11-15T06:12:05.506Z,99532.06
2022-11-15T06:14:53.846Z,99503.31
2022-11-15T06:17:40.784Z,99447.00
2022-11-15T06:20:29.540Z,99532.19
2022-11-15T06:23:16.338Z,99504.91
2022-11-15T06:26:04.567Z,99502.28
2022-11-15T06:28:51.214Z,99523.88
2022-11-15T06:31:38.572Z,99539.13
2022-11-15T06:34:25.291Z,99538.38
2022-11-15T06:37:12.034Z,99493.13
2022-11-15T06:39:58.736Z,99526.72
2022-11-15T06:42:45.265Z,99554.84
2022-11-15T06:45:32.765Z,99553.38
2022-11-15T06:48:19.753Z,99535.22
2022-11-15T06:51:06.684Z,99526.91
2022-11-15T06:53:53.408Z,99541.25
2022-11-15T06:56:40.002Z,99527.94
2022-11-15T06:59:26.702Z,99527.22
2022-11-15T07:02:16.340Z,99542.78
2022-11-15T07:05:03.105Z,99545.75
2022-11-15T07:07:57.952Z,99544.03
2022-11-15T07:10:44.729Z,99552.06
2022-11-15T07:13:36.669Z,99518.16
2022-11-15T07:16:23.339Z,99550.34
2022-11-15T07:19:10.882Z,99550.06
2022-11-15T07:21:57.770Z,99535.84
2022-11-15T07:24:44.269Z,99508.59
2022-11-15T07:27:31.075Z,99523.03
2022-11-15T07:30:17.681Z,99545.41
2022-11-15T07:33:04.606Z,99538.91
2022-11-15T07:35:51.192Z,99476.88
2022-11-15T07:38:42.798Z,99565.00
2022-11-15T07:41:30.841Z,99549.94
2022-11-15T07:44:17.405Z,99558.44
2022-11-15T07:47:04.178Z,99506.13
2022-11-15T07:49:50.657Z,99548.13
2022-11-15T07:52:37.299Z,99507.66
2022-11-15T07:55:31.795Z,99503.97
2022-11-15T07:58:18.878Z,99492.56
2022-11-15T08:01:08.139Z,99491.41
2022-11-15T08:03:55.387Z,99546.00
2022-11-15T08:06:42.192Z,99484.75
2022-11-15T08:09:29.120Z,99540.09
2022-11-15T08:12:16.294Z,99535.56
2022-11-15T08:15:03.421Z,99500.31
2022-11-15T08:17:59.641Z,99497.44
2022-11-15T08:20:46.381Z,99534.25
2022-11-15T08:23:34.766Z,99524.13
2022-11-15T08:26:21.722Z,99513.34
2022-11-15T08:29:11.196Z,99519.13
2022-11-15T08:31:58.615Z,99508.81
2022-11-15T08:34:45.705Z,99528.94
2022-11-15T08:37:32.547Z,99528.38
2022-11-15T08:40:20.276Z,99527.94
2022-11-15T08:43:07.108Z,99520.72
2022-11-15T08:45:58.560Z,99525.69
2022-11-15T08:48:45.141Z,99526.31
2022-11-15T08:51:32.171Z,99525.72
2022-11-15T08:54:18.755Z,99525.13
2022-11-15T08:57:05.284Z,99484.25
2022-11-15T08:59:51.982Z,99483.03
2022-11-15T09:02:42.125Z,99519.13
2022-11-15T09:05:28.804Z,99516.13
2022-11-15T09:08:40.885Z,99516.97
2022-11-15T09:11:23.155Z,99506.66
2022-11-15T09:14:14.600Z,99511.25
2022-11-15T09:17:02.653Z,99509.31
2022-11-15T09:19:49.244Z,99446.72
2022-11-15T09:22:35.983Z,99498.06
2022-11-15T09:25:22.787Z,99448.34
2022-11-15T09:28:09.837Z,99497.38
2022-11-15T09:31:04.884Z,99496.44
2022-11-15T09:33:53.750Z,99460.63
2022-11-15T09:36:40.372Z,99477.19
2022-11-15T09:39:27.156Z,99468.44
2022-11-15T09:42:25.818Z,99437.66
2022-11-15T09:45:43.069Z,99424.84
2022-11-15T09:49:00.392Z,99451.66
2022-11-15T09:51:47.963Z,99451.28
2022-11-15T09:54:53.978Z,99414.13
2022-11-15T09:58:43.054Z,99443.09
2022-11-15T10:01:42.847Z,99443.75
2022-11-15T10:04:12.089Z,99400.97
2022-11-15T10:06:54.077Z,99407.88
2022-11-15T10:09:33.226Z,99405.88
2022-11-15T10:12:01.625Z,99410.34
2022-11-15T10:14:32.563Z,99372.06
2022-11-15T10:17:32.662Z,99407.66
2022-11-15T10:20:18.883Z,99394.91
2022-11-15T10:22:54.604Z,99376.84
2022-11-15T10:25:32.474Z,99390.78
2022-11-15T10:28:24.135Z,99381.38
2022-11-15T10:30:57.307Z,99373.25
2022-11-15T10:33:40.370Z,99382.13
2022-11-15T10:36:14.434Z,99336.38
2022-11-15T10:38:53.869Z,99369.31
2022-11-15T10:41:27.747Z,99360.34
2022-11-15T10:44:20.199Z,99359.06
2022-11-15T10:46:57.862Z,99316.13
2022-11-15T10:49:31.750Z,99344.66
2022-11-15T10:52:21.464Z,99306.53
2022-11-15T10:55:24.445Z,99324.56
2022-11-15T10:57:56.986Z,99330.44
2022-11-15T11:00:40.356Z,99318.56
2022-11-15T11:03:41.511Z,99315.50
2022-11-15T11:06:19.739Z,99287.47
2022-11-15T11:08:57.229Z,99295.09
2022-11-15T11:11:26.499Z,99312.38
2022-11-15T11:13:54.909Z,99274.22
2022-11-15T11:17:20.107Z,99248.38
2022-11-15T11:20:10.548Z,99295.59
2022-11-15T11:22:44.881Z,99175.59
2022-11-15T11:25:45.766Z,99263.47
2022-11-15T11:28:51.620Z,99278.19
2022-11-15T11:31:39.120Z,99276.06
2022-11-15T11:34:35.405Z,99283.34
2022-11-15T11:37:39.927Z,99241.50
2022-11-15T11:40:36.190Z,99252.78
2022-11-15T11:43:39.586Z,99199.91
2022-11-15T11:46:47.259Z,99242.25
2022-11-15T11:49:32.184Z,99195.34
2022-11-15T11:52:23.395Z,99242.41
2022-11-15T11:55:15.924Z,99200.53
2022-11-15T11:58:36.175Z,99222.72
2022-11-15T12:01:13.064Z,99187.44
2022-11-15T12:04:15.284Z,99228.44
2022-11-15T12:07:09.665Z,99222.03
2022-11-15T12:09:46.187Z,99216.03
2022-11-15T12:12:44.935Z,99207.38
2022-11-15T12:15:28.696Z,99168.44
2022-11-15T12:17:58.341Z,99198.53
2022-11-15T12:20:34.188Z,99180.75
2022-11-15T12:23:04.652Z,99189.50
2022-11-15T12:25:50.662Z,99187.16
2022-11-15T12:28:52.946Z,99161.25
2022-11-15T12:31:36.618Z,99183.16
2022-11-15T12:34:21.922Z,99183.16
2022-11-15T12:36:52.585Z,99100.78
2022-11-15T12:39:20.826Z,99127.69
2022-11-15T12:41:58.218Z,99169.53
2022-11-15T12:44:32.012Z,99168.44
2022-11-15T12:47:03.458Z,99166.78
2022-11-15T12:49:31.245Z,99156.44
2022-11-15T12:51:59.136Z,99152.25
2022-11-15T12:54:28.559Z,99137.59
2022-11-15T12:57:08.151Z,99097.75
2022-11-15T13:00:04.207Z,99098.16
2022-11-15T13:02:33.669Z,99151.59
2022-11-15T13:05:17.282Z,99141.00
2022-11-15T13:07:47.940Z,99130.50
2022-11-15T13:10:28.632Z,99118.81
2022-11-15T13:13:08.174Z,99122.44
2022-11-15T13:16:00.628Z,99109.88
2022-11-15T13:18:40.847Z,99117.81
2022-11-15T13:21:44.623Z,99124.53
2022-11-15T13:24:18.154Z,99102.78
2022-11-15T13:26:47.313Z,99121.59
2022-11-15T13:29:21.275Z,99101.47
2022-11-15T13:31:50.419Z,99097.28
2022-11-15T13:34:54.226Z,99106.59
2022-11-15T13:37:22.245Z,99072.75
2022-11-15T13:39:50.804Z,99070.25
2022-11-15T13:42:22.078Z,99099.25
2022-11-15T13:45:02.168Z,99095.50
2022-11-15T13:47:31.266Z,99060.09
2022-11-15T13:50:02.149Z,99057.88
2022-11-15T13:52:38.072Z,99075.66
2022-11-15T13:55:14.785Z,99064.22
2022-11-15T13:57:56.861Z,99082.19
2022-11-15T14:00:47.519Z,99006.00
2022-11-15T14:03:28.927Z,99074.75
2022-11-15T14:06:17.848Z,99081.47
2022-11-15T14:09:11.362Z,99083.97
2022-11-15T14:11:57.227Z,99082.41
2022-11-15T14:14:30.970Z,99086.06
2022-11-15T14:17:01.878Z,99094.31
2022-11-15T14:19:29.665Z,99048.84
2022-11-15T14:22:24.262Z,99088.72
2022-11-15T14:25:14.129Z,99095.28
2022-11-15T14:27:45.644Z,99083.06
2022-11-15T14:30:18.313Z,99059.81
2022-11-15T14:32:50.517Z,99071.25
2022-11-15T14:35:22.929Z,99067.91
2022-11-15T14:37:51.856Z,99058.00
2022-11-15T14:40:23.270Z,99046.56
2022-11-15T14:42:51.830Z,99047.81
2022-11-15T14:45:23.521Z,99070.81
2022-11-15T14:47:51.564Z,99059.47
2022-11-15T14:50:22.412Z,99070.31
2022-11-15T14:52:50.975Z,98996.25
2022-11-15T14:55:37.514Z,99042.38
2022-11-15T14:58:09.066Z,99010.53
2022-11-15T15:00:43.058Z,99002.13
2022-11-15T15:03:11.371Z,99048.53
2022-11-15T15:05:45.210Z,99044.75
2022-11-15T15:08:13.319Z,99020.16
2022-11-15T15:10:44.903Z,99046.56
2022-11-15T15:13:22.871Z,98989.16
2022-11-15T15:15:52.633Z,99042.94
2022-11-15T15:18:21.422Z,98991.91
2022-11-15T15:21:01.475Z,99034.31
2022-11-15T15:23:32.136Z,98966.97
2022-11-15T15:26:00.509Z,99029.56
2022-11-15T15:28:34.299Z,98971.19
2022-11-15T15:31:03.574Z,98975.63
2022-11-15T15:33:31.963Z,99025.03
2022-11-15T15:36:00.376Z,99026.91
2022-11-15T15:38:28.534Z,98937.91
2022-11-15T15:41:01.074Z,99021.63
2022-11-15T15:43:29.101Z,99004.47
2022-11-15T15:45:57.377Z,99027.31
2022-11-15T15:48:26.283Z,99034.53
2022-11-15T15:50:54.281Z,99033.09
2022-11-15T15:53:22.184Z,98989.91
2022-11-15T15:55:50.359Z,99023.78
2022-11-15T15:58:18.494Z,99035.31
2022-11-15T16:00:46.560Z,99029.31
2022-11-15T16:03:14.920Z,99009.47
2022-11-15T16:05:43.171Z,99000.25
2022-11-15T16:08:24.835Z,99008.50
2022-11-15T16:10:53.412Z,98987.00
2022-11-15T16:13:23.667Z,99021.22
2022-11-15T16:15:56.016Z,99015.00
2022-11-15T16:18:24.265Z,99018.25
2022-11-15T16:20:55.911Z,99023.25
2022-11-15T16:23:25.635Z,99020.75
2022-11-15T16:25:56.906Z,99027.13
2022-11-15T16:28:32.344Z,98962.47
2022-11-15T16:31:11.728Z,98970.84
2022-11-15T16:33:41.262Z,99026.53
2022-11-15T16:36:35.921Z,98995.53
2022-11-15T16:39:05.333Z,99012.66
2022-11-15T16:41:33.769Z,98964.25
2022-11-15T16:44:01.885Z,99025.94
2022-11-15T16:46:30.798Z,98972.41
2022-11-15T16:48:59.418Z,98982.94
2022-11-15T16:51:27.539Z,99004.97
2022-11-15T16:53:55.837Z,98960.09
2022-11-15T16:56:31.429Z,98960.81
2022-11-15T16:59:01.996Z,98988.81
2022-11-15T17:01:36.296Z,98984.13
2022-11-15T17:04:15.560Z,98993.81
2022-11-15T17:06:45.931Z,98985.78
2022-11-15T17:09:26.512Z,98975.50
2022-11-15T17:11:54.756Z,98963.53
2022-11-15T17:14:23.285Z,98910.84
2022-11-15T17:16:51.525Z,98930.25
2022-11-15T17:19:21.592Z,98980.06
2022-11-15T17:21:50.070Z,98981.22
2022-11-15T17:24:21.276Z,98979.19
2022-11-15T17:26:49.413Z,98981.19
2022-11-15T17:29:18.738Z,98966.34
2022-11-15T17:31:47.008Z,98937.84
2022-11-15T17:34:15.042Z,98928.75
2022-11-15T17:36:43.232Z,98969.09
2022-11-15T17:39:11.179Z,98961.19
2022-11-15T17:41:39.224Z,98972.81
2022-11-15T17:44:07.416Z,98939.25
2022-11-15T17:46:36.954Z,98985.47
2022-11-15T17:49:04.989Z,98986.09
2022-11-15T17:51:35.549Z,98990.28
2022-11-15T17:54:03.792Z,98991.16
2022-11-15T17:56:31.927Z,98977.34
2022-11-15T17:59:00.904Z,98970.53
2022-11-15T18:01:38.831Z,98949.59
2022-11-15T18:04:10.846Z,98977.38
2022-11-15T18:06:38.961Z,98925.69
2022-11-15T18:09:08.600Z,98968.69
2022-11-15T18:11:40.327Z,98959.59
2022-11-15T18:14:14.139Z,98969.19
2022-11-15T18:16:43.122Z,98912.34
2022-11-15T18:19:14.225Z,98967.63
2022-11-15T18:21:57.595Z,98910.28
2022-11-15T18:24:31.645Z,98960.47
2022-11-15T18:27:02.910Z,98970.72
2022-11-15T18:29:31.397Z,98961.50
2022-11-15T18:32:06.658Z,98946.44
2022-11-15T18:34:34.766Z,98984.97
2022-11-15T18:37:03.547Z,98945.63
2022-11-15T18:39:32.112Z,98980.91
2022-11-15T18:42:01.387Z,98942.97
2022-11-15T18:44:30.521Z,98971.69
2022-11-15T18:46:58.777Z,98989.38
2022-11-15T18:49:27.029Z,98980.78
2022-11-15T18:51:56.662Z,98978.84
2022-11-15T18:54:30.637Z,98985.06
2022-11-15T18:57:00.481Z,98979.91
2022-11-15T18:59:29.312Z,98977.25
2022-11-15T19:01:58.068Z,98968.75
2022-11-15T19:04:26.359Z,98975.94
2022-11-15T19:06:54.633Z,98980.00
2022-11-15T19:09:27.607Z,98969.72
2022-11-15T19:11:56.005Z,98978.56
2022-11-15T19:14:26.342Z,98965.28
2022-11-15T19:16:55.399Z,98953.72
2022-11-15T19:19:28.008Z,98804.81
2022-11-15T19:21:57.689Z,98959.91
2022-11-15T19:24:27.648Z,98934.50
2022-11-15T19:26:55.901Z,98964.91
2022-11-15T19:29:23.959Z,98967.31
2022-11-15T19:31:52.157Z,98955.56
2022-11-15T19:34:21.222Z,98967.78
2022-11-15T19:36:49.335Z,98965.25
2022-11-15T19:39:18.778Z,98960.56
2022-11-15T19:41:47.360Z,98955.78
2022-11-15T19:44:15.592Z,98961.41
2022-11-15T19:46:44.544Z,98943.66
2022-11-15T19:49:12.810Z,98933.09
2022-11-15T19:51:42.842Z,98941.00
2022-11-15T19:54:11.249Z,98953.88
2022-11-15T19:56:42.359Z,98920.31
2022-11-15T19:59:12.062Z,98888.63
2022-11-15T20:01:43.406Z,98907.66
2022-11-15T20:04:12.668Z,98927.09
2022-11-15T20:06:43.315Z,98936.88
2022-11-15T20:09:16.805Z,98943.38
2022-11-15T20:11:45.293Z,98935.47
2022-11-15T20:14:13.506Z,98928.84
2022-11-15T20:16:42.210Z,98841.81
2022-11-15T20:19:12.544Z,98921.91
2022-11-15T20:21:40.989Z,98913.88
2022-11-15T20:24:09.767Z,98919.34
2022-11-15T20:26:39.107Z,98917.53
2022-11-15T20:29:10.318Z,98910.34
2022-11-15T20:31:38.673Z,98830.50
2022-11-15T20:34:06.978Z,98861.34
2022-11-15T20:36:35.113Z,98899.00
2022-11-15T20:39:03.535Z,98896.50
2022-11-15T20:41:32.048Z,98847.13
2022-11-15T20:44:03.415Z,98869.78
2022-11-15T20:46:31.507Z,98889.69
2022-11-15T20:48:59.616Z,98904.94
2022-11-15T20:51:27.903Z,98904.66
2022-11-15T20:53:57.145Z,98914.00
2022-11-15T20:56:25.366Z,98912.84
2022-11-15T20:58:55.000Z,98913.94
2022-11-15T21:01:25.014Z,98902.09
2022-11-15T21:03:55.925Z,98904.09
2022-11-15T21:06:26.319Z,98903.50
2022-11-15T21:09:14.253Z,98887.75
2022-11-15T21:12:01.637Z,98907.88
2022-11-15T21:14:30.305Z,98897.72
2022-11-15T21:16:58.651Z,98852.03
2022-11-15T21:19:49.557Z,98906.13
2022-11-15T21:22:17.737Z,98868.00
2022-11-15T21:24:46.002Z,98886.13
2022-11-15T21:27:15.605Z,98861.88
2022-11-15T21:29:46.040Z,98903.00
2022-11-15T21:32:14.620Z,98893.84
2022-11-15T21:34:43.133Z,98903.00
2022-11-15T21:37:11.379Z,98901.63
2022-11-15T21:39:39.834Z,98904.84
2022-11-15T21:42:08.091Z,98850.84
2022-11-15T21:44:38.326Z,98894.63
2022-11-15T21:47:06.623Z,98884.88
2022-11-15T21:49:35.424Z,98896.88
2022-11-15T21:52:03.917Z,98899.50
2022-11-15T21:54:32.029Z,98869.91
2022-11-15T21:57:00.134Z,98874.78
2022-11-15T21:59:28.132Z,98892.59
2022-11-15T22:02:14.669Z,98885.31
2022-11-15T22:04:52.079Z,98904.59
2022-11-15T22:07:21.080Z,98869.50
2022-11-15T22:09:49.690Z,98896.97
2022-11-15T22:12:18.230Z,98875.22
2022-11-15T22:14:46.485Z,98896.97
2022-11-15T22:17:14.848Z,98889.06
2022-11-15T22:19:52.310Z,98887.53
2022-11-15T22:22:20.867Z,98879.56
2022-11-15T22:24:49.270Z,98884.91
2022-11-15T22:27:17.272Z,98872.75
2022-11-15T22:29:45.305Z,98889.91
2022-11-15T22:32:13.684Z,98889.63
2022-11-15T22:34:42.002Z,98888.56
2022-11-15T22:37:25.385Z,98815.59
2022-11-15T22:39:53.602Z,98881.78
2022-11-15T22:42:23.963Z,98874.13
2022-11-15T22:44:52.614Z,98865.22
2022-11-15T22:47:21.895Z,98868.66
2022-11-15T22:49:50.157Z,98867.38
2022-11-15T22:52:18.991Z,98814.31
2022-11-15T22:54:48.504Z,98863.66
2022-11-15T22:57:17.167Z,98819.03
2022-11-15T22:59:45.314Z,98860.44
2022-11-15T23:02:14.531Z,98856.75
2022-11-15T23:04:42.492Z,98853.25
2022-11-15T23:07:10.555Z,98799.06
2022-11-15T23:09:40.977Z,98805.69
2022-11-15T23:12:30.181Z,98844.81
2022-11-15T23:14:58.511Z,98822.81
2022-11-15T23:17:26.450Z,98830.31
2022-11-15T23:19:55.966Z,98833.94
2022-11-15T23:22:43.295Z,98832.16
2022-11-15T23:25:11.256Z,98773.09
2022-11-15T23:27:39.617Z,98834.69
2022-11-15T23:30:26.978Z,98829.31
2022-11-15T23:33:14.562Z,98826.69
2022-11-15T23:35:42.568Z,98821.16
2022-11-15T23:38:10.769Z,98830.88
2022-11-15T23:40:38.665Z,98812.75
2022-11-15T23:43:07.370Z,98786.53
2022-11-15T23:45:38.283Z,98818.31
2022-11-15T23:48:06.600Z,98733.81
2022-11-15T23:50:36.456Z,98770.13
2022-11-15T23:53:05.232Z,98816.22
2022-11-15T23:55:33.103Z,98820.25
2022-11-15T23:58:01.161Z,98810.75
